sensor_id;sensor_type;location;lat;lon;timestamp;P1;durP1;ratioP1;P2;durP2;ratioP2
13240;SDS011;6687;47.790;7.322;2023-07-28T05:24:24;1.05;;;1.00;;
13240;SDS011;6687;47.790;7.322;2023-07-28T05:26:51;1.60;;;1.20;;
13240;SDS011;6687;47.790;7.322;2023-07-28T05:29:18;0.80;;;0.80;;
13240;SDS011;6687;47.790;7.322;2023-07-28T05:31:44;1.27;;;0.88;;
13240;SDS011;6687;47.790;7.322;2023-07-28T05:34:11;0.93;;;0.85;;
13240;SDS011;6687;47.790;7.322;2023-07-28T05:36:38;0.60;;;0.60;;
13240;SDS011;6687;47.790;7.322;2023-07-28T05:39:05;1.75;;;1.38;;
13240;SDS011;6687;47.790;7.322;2023-07-28T05:41:33;1.40;;;0.90;;
13240;SDS011;6687;47.790;7.322;2023-07-28T05:44:00;1.15;;;0.85;;
13240;SDS011;6687;47.790;7.322;2023-07-28T05:46:26;0.93;;;0.93;;
13240;SDS011;6687;47.790;7.322;2023-07-28T05:48:53;0.82;;;0.82;;
13240;SDS011;6687;47.790;7.322;2023-07-28T05:51:20;1.95;;;1.60;;
13240;SDS011;6687;47.790;7.322;2023-07-28T05:53:47;0.77;;;0.75;;
13240;SDS011;6687;47.790;7.322;2023-07-28T05:56:14;1.42;;;1.33;;
13240;SDS011;6687;47.790;7.322;2023-07-28T05:58:42;1.80;;;1.10;;
13240;SDS011;6687;47.790;7.322;2023-07-28T06:01:08;1.35;;;1.00;;
13240;SDS011;6687;47.790;7.322;2023-07-28T06:03:35;1.45;;;1.00;;
13240;SDS011;6687;47.790;7.322;2023-07-28T06:06:02;1.17;;;1.13;;
13240;SDS011;6687;47.790;7.322;2023-07-28T06:08:29;1.15;;;0.90;;
13240;SDS011;6687;47.790;7.322;2023-07-28T06:10:55;2.22;;;1.30;;
13240;SDS011;6687;47.790;7.322;2023-07-28T06:13:22;1.08;;;1.00;;
13240;SDS011;6687;47.790;7.322;2023-07-28T06:15:52;2.13;;;1.00;;
13240;SDS011;6687;47.790;7.322;2023-07-28T06:18:21;0.80;;;0.80;;
13240;SDS011;6687;47.790;7.322;2023-07-28T06:20:48;1.60;;;1.15;;
13240;SDS011;6687;47.790;7.322;2023-07-28T06:23:15;0.90;;;0.90;;
13240;SDS011;6687;47.790;7.322;2023-07-28T06:25:42;0.73;;;0.73;;
13240;SDS011;6687;47.790;7.322;2023-07-28T06:28:11;1.50;;;1.00;;
13240;SDS011;6687;47.790;7.322;2023-07-28T06:30:38;1.42;;;1.05;;
13240;SDS011;6687;47.790;7.322;2023-07-28T06:33:07;1.23;;;1.13;;
13240;SDS011;6687;47.790;7.322;2023-07-28T06:35:34;0.73;;;0.73;;
13240;SDS011;6687;47.790;7.322;2023-07-28T06:38:01;1.60;;;1.50;;
13240;SDS011;6687;47.790;7.322;2023-07-28T06:40:28;0.98;;;0.90;;
13240;SDS011;6687;47.790;7.322;2023-07-28T06:42:55;0.85;;;0.85;;
13240;SDS011;6687;47.790;7.322;2023-07-28T06:45:22;1.02;;;1.02;;
13240;SDS011;6687;47.790;7.322;2023-07-28T06:47:48;1.75;;;1.33;;
13240;SDS011;6687;47.790;7.322;2023-07-28T06:50:17;0.73;;;0.73;;
13240;SDS011;6687;47.790;7.322;2023-07-28T06:52:45;2.47;;;1.02;;
13240;SDS011;6687;47.790;7.322;2023-07-28T06:55:13;1.25;;;0.70;;
13240;SDS011;6687;47.790;7.322;2023-07-28T06:57:39;1.20;;;1.10;;
13240;SDS011;6687;47.790;7.322;2023-07-28T07:00:06;1.38;;;0.80;;
13240;SDS011;6687;47.790;7.322;2023-07-28T07:02:35;0.88;;;0.82;;
13240;SDS011;6687;47.790;7.322;2023-07-28T07:05:01;0.85;;;0.75;;
13240;SDS011;6687;47.790;7.322;2023-07-28T07:07:30;2.85;;;1.23;;
13240;SDS011;6687;47.790;7.322;2023-07-28T07:09:57;1.20;;;1.02;;
13240;SDS011;6687;47.790;7.322;2023-07-28T07:12:24;1.13;;;1.05;;
13240;SDS011;6687;47.790;7.322;2023-07-28T07:14:51;1.38;;;0.90;;
13240;SDS011;6687;47.790;7.322;2023-07-28T07:17:18;0.98;;;0.95;;
13240;SDS011;6687;47.790;7.322;2023-07-28T07:19:44;1.25;;;1.15;;
13240;SDS011;6687;47.790;7.322;2023-07-28T07:22:11;0.80;;;0.80;;
13240;SDS011;6687;47.790;7.322;2023-07-28T07:24:39;0.75;;;0.70;;
13240;SDS011;6687;47.790;7.322;2023-07-28T07:27:06;0.75;;;0.75;;
13240;SDS011;6687;47.790;7.322;2023-07-28T07:29:36;1.05;;;0.90;;
13240;SDS011;6687;47.790;7.322;2023-07-28T07:32:03;1.20;;;0.60;;
13240;SDS011;6687;47.790;7.322;2023-07-28T07:34:30;0.95;;;0.95;;
13240;SDS011;6687;47.790;7.322;2023-07-28T07:36:57;0.80;;;0.80;;
13240;SDS011;6687;47.790;7.322;2023-07-28T07:39:24;0.85;;;0.70;;
13240;SDS011;6687;47.790;7.322;2023-07-28T07:41:52;0.77;;;0.73;;
13240;SDS011;6687;47.790;7.322;2023-07-28T07:44:19;0.80;;;0.80;;
13240;SDS011;6687;47.790;7.322;2023-07-28T07:46:46;1.20;;;0.82;;
13240;SDS011;6687;47.790;7.322;2023-07-28T07:49:13;1.15;;;0.70;;
13240;SDS011;6687;47.790;7.322;2023-07-28T07:51:39;0.70;;;0.70;;
13240;SDS011;6687;47.790;7.322;2023-07-28T07:54:06;0.63;;;0.63;;
13240;SDS011;6687;47.790;7.322;2023-07-28T07:56:33;0.70;;;0.70;;
13240;SDS011;6687;47.790;7.322;2023-07-28T07:59:01;1.05;;;0.95;;
13240;SDS011;6687;47.790;7.322;2023-07-28T08:01:28;0.63;;;0.63;;
13240;SDS011;6687;47.790;7.322;2023-07-28T08:03:54;0.75;;;0.55;;
13240;SDS011;6687;47.790;7.322;2023-07-28T08:06:21;1.65;;;0.65;;
13240;SDS011;6687;47.790;7.322;2023-07-28T08:08:48;0.57;;;0.57;;
13240;SDS011;6687;47.790;7.322;2023-07-28T08:11:17;1.38;;;0.80;;
13240;SDS011;6687;47.790;7.322;2023-07-28T08:13:44;0.82;;;0.77;;
13240;SDS011;6687;47.790;7.322;2023-07-28T08:16:14;1.25;;;0.93;;
13240;SDS011;6687;47.790;7.322;2023-07-28T08:18:41;0.70;;;0.70;;
13240;SDS011;6687;47.790;7.322;2023-07-28T08:21:08;1.35;;;0.70;;
13240;SDS011;6687;47.790;7.322;2023-07-28T08:23:35;0.75;;;0.50;;
13240;SDS011;6687;47.790;7.322;2023-07-28T08:26:01;1.23;;;1.00;;
13240;SDS011;6687;47.790;7.322;2023-07-28T08:28:28;0.82;;;0.82;;
13240;SDS011;6687;47.790;7.322;2023-07-28T08:30:55;0.70;;;0.70;;
13240;SDS011;6687;47.790;7.322;2023-07-28T08:33:24;0.90;;;0.90;;
13240;SDS011;6687;47.790;7.322;2023-07-28T08:35:52;1.30;;;0.93;;
13240;SDS011;6687;47.790;7.322;2023-07-28T08:38:19;0.95;;;0.70;;
13240;SDS011;6687;47.790;7.322;2023-07-28T08:40:45;1.05;;;0.70;;
13240;SDS011;6687;47.790;7.322;2023-07-28T08:43:12;0.90;;;0.90;;
13240;SDS011;6687;47.790;7.322;2023-07-28T08:45:39;0.82;;;0.80;;
13240;SDS011;6687;47.790;7.322;2023-07-28T08:48:06;0.45;;;0.45;;
13240;SDS011;6687;47.790;7.322;2023-07-28T08:50:34;0.55;;;0.50;;
13240;SDS011;6687;47.790;7.322;2023-07-28T08:53:01;0.40;;;0.40;;
13240;SDS011;6687;47.790;7.322;2023-07-28T08:55:28;0.30;;;0.30;;
13240;SDS011;6687;47.790;7.322;2023-07-28T08:57:54;1.00;;;0.70;;
13240;SDS011;6687;47.790;7.322;2023-07-28T09:00:21;0.85;;;0.77;;
13240;SDS011;6687;47.790;7.322;2023-07-28T09:02:50;2.00;;;0.65;;
13240;SDS011;6687;47.790;7.322;2023-07-28T09:05:17;0.70;;;0.70;;
13240;SDS011;6687;47.790;7.322;2023-07-28T09:07:46;0.55;;;0.40;;
13240;SDS011;6687;47.790;7.322;2023-07-28T09:10:13;0.50;;;0.50;;
13240;SDS011;6687;47.790;7.322;2023-07-28T09:12:44;0.60;;;0.60;;
13240;SDS011;6687;47.790;7.322;2023-07-28T09:15:11;0.95;;;0.70;;
13240;SDS011;6687;47.790;7.322;2023-07-28T09:17:42;0.65;;;0.40;;
13240;SDS011;6687;47.790;7.322;2023-07-28T09:20:12;0.98;;;0.73;;
13240;SDS011;6687;47.790;7.322;2023-07-28T09:22:39;0.63;;;0.57;;
13240;SDS011;6687;47.790;7.322;2023-07-28T09:25:12;1.05;;;0.70;;
13240;SDS011;6687;47.790;7.322;2023-07-28T09:27:40;1.13;;;0.75;;
13240;SDS011;6687;47.790;7.322;2023-07-28T09:30:14;0.70;;;0.70;;
13240;SDS011;6687;47.790;7.322;2023-07-28T09:32:46;0.65;;;0.55;;
13240;SDS011;6687;47.790;7.322;2023-07-28T09:35:14;0.60;;;0.60;;
13240;SDS011;6687;47.790;7.322;2023-07-28T09:37:42;0.40;;;0.40;;
13240;SDS011;6687;47.790;7.322;2023-07-28T09:40:12;0.60;;;0.52;;
13240;SDS011;6687;47.790;7.322;2023-07-28T09:42:41;1.20;;;1.00;;
13240;SDS011;6687;47.790;7.322;2023-07-28T09:45:09;0.60;;;0.50;;
13240;SDS011;6687;47.790;7.322;2023-07-28T09:47:37;3.00;;;0.90;;
13240;SDS011;6687;47.790;7.322;2023-07-28T09:50:05;1.55;;;0.85;;
13240;SDS011;6687;47.790;7.322;2023-07-28T09:52:35;0.50;;;0.50;;
13240;SDS011;6687;47.790;7.322;2023-07-28T09:55:06;0.50;;;0.50;;
13240;SDS011;6687;47.790;7.322;2023-07-28T09:57:38;0.93;;;0.50;;
13240;SDS011;6687;47.790;7.322;2023-07-28T10:00:08;0.68;;;0.68;;
13240;SDS011;6687;47.790;7.322;2023-07-28T10:02:37;1.15;;;0.45;;
13240;SDS011;6687;47.790;7.322;2023-07-28T10:05:04;0.75;;;0.75;;
13240;SDS011;6687;47.790;7.322;2023-07-28T10:07:32;0.85;;;0.50;;
13240;SDS011;6687;47.790;7.322;2023-07-28T10:10:00;0.50;;;0.50;;
13240;SDS011;6687;47.790;7.322;2023-07-28T10:12:30;0.80;;;0.80;;
13240;SDS011;6687;47.790;7.322;2023-07-28T10:15:12;1.02;;;0.63;;
13240;SDS011;6687;47.790;7.322;2023-07-28T10:17:41;0.75;;;0.60;;
13240;SDS011;6687;47.790;7.322;2023-07-28T10:23:04;0.88;;;0.77;;
13240;SDS011;6687;47.790;7.322;2023-07-28T10:25:32;0.85;;;0.80;;
13240;SDS011;6687;47.790;7.322;2023-07-28T10:28:02;0.80;;;0.60;;
13240;SDS011;6687;47.790;7.322;2023-07-28T10:30:34;0.65;;;0.65;;
13240;SDS011;6687;47.790;7.322;2023-07-28T10:33:02;1.83;;;1.00;;
13240;SDS011;6687;47.790;7.322;2023-07-28T10:35:29;1.02;;;0.50;;
13240;SDS011;6687;47.790;7.322;2023-07-28T10:37:57;1.10;;;0.95;;
13240;SDS011;6687;47.790;7.322;2023-07-28T10:40:27;1.20;;;0.73;;
13240;SDS011;6687;47.790;7.322;2023-07-28T10:42:55;1.30;;;1.20;;
13240;SDS011;6687;47.790;7.322;2023-07-28T10:45:24;1.30;;;0.90;;
13240;SDS011;6687;47.790;7.322;2023-07-28T10:47:52;0.82;;;0.80;;
13240;SDS011;6687;47.790;7.322;2023-07-28T10:50:21;1.45;;;1.15;;
13240;SDS011;6687;47.790;7.322;2023-07-28T10:52:48;1.20;;;1.10;;
13240;SDS011;6687;47.790;7.322;2023-07-28T10:55:15;0.65;;;0.63;;
13240;SDS011;6687;47.790;7.322;2023-07-28T10:57:43;1.65;;;1.55;;
13240;SDS011;6687;47.790;7.322;2023-07-28T11:00:11;2.03;;;1.20;;
13240;SDS011;6687;47.790;7.322;2023-07-28T11:02:43;1.58;;;1.15;;
13240;SDS011;6687;47.790;7.322;2023-07-28T11:05:10;1.50;;;1.40;;
13240;SDS011;6687;47.790;7.322;2023-07-28T11:07:40;1.38;;;0.98;;
13240;SDS011;6687;47.790;7.322;2023-07-28T11:10:09;0.85;;;0.70;;
13240;SDS011;6687;47.790;7.322;2023-07-28T11:12:39;1.02;;;1.00;;
13240;SDS011;6687;47.790;7.322;2023-07-28T11:15:08;2.17;;;1.67;;
13240;SDS011;6687;47.790;7.322;2023-07-28T11:17:36;3.20;;;1.42;;
13240;SDS011;6687;47.790;7.322;2023-07-28T11:20:06;1.45;;;1.10;;
13240;SDS011;6687;47.790;7.322;2023-07-28T11:22:41;1.58;;;0.98;;
13240;SDS011;6687;47.790;7.322;2023-07-28T11:25:08;1.45;;;1.35;;
13240;SDS011;6687;47.790;7.322;2023-07-28T11:27:35;1.33;;;1.10;;
13240;SDS011;6687;47.790;7.322;2023-07-28T11:30:02;1.73;;;1.33;;
13240;SDS011;6687;47.790;7.322;2023-07-28T11:32:30;1.58;;;1.30;;
13240;SDS011;6687;47.790;7.322;2023-07-28T11:35:02;0.70;;;0.70;;
13240;SDS011;6687;47.790;7.322;2023-07-28T11:37:31;1.55;;;1.40;;
13240;SDS011;6687;47.790;7.322;2023-07-28T11:39:59;0.70;;;0.70;;
13240;SDS011;6687;47.790;7.322;2023-07-28T11:42:27;1.08;;;0.90;;
13240;SDS011;6687;47.790;7.322;2023-07-28T11:44:55;0.93;;;0.93;;
13240;SDS011;6687;47.790;7.322;2023-07-28T11:47:22;0.90;;;0.90;;
13240;SDS011;6687;47.790;7.322;2023-07-28T11:49:49;1.10;;;1.00;;
13240;SDS011;6687;47.790;7.322;2023-07-28T11:52:16;1.10;;;0.95;;
13240;SDS011;6687;47.790;7.322;2023-07-28T11:54:44;1.00;;;1.00;;
13240;SDS011;6687;47.790;7.322;2023-07-28T11:57:11;0.82;;;0.80;;
13240;SDS011;6687;47.790;7.322;2023-07-28T11:59:39;0.82;;;0.80;;
13240;SDS011;6687;47.790;7.322;2023-07-28T12:02:06;2.13;;;0.90;;
13240;SDS011;6687;47.790;7.322;2023-07-28T12:04:35;0.70;;;0.70;;
13240;SDS011;6687;47.790;7.322;2023-07-28T12:07:04;0.80;;;0.77;;
13240;SDS011;6687;47.790;7.322;2023-07-28T12:09:33;0.60;;;0.60;;
13240;SDS011;6687;47.790;7.322;2023-07-28T12:12:15;1.08;;;0.90;;
13240;SDS011;6687;47.790;7.322;2023-07-28T12:14:43;0.68;;;0.40;;
13240;SDS011;6687;47.790;7.322;2023-07-28T12:17:11;0.30;;;0.30;;
13240;SDS011;6687;47.790;7.322;2023-07-28T12:19:40;1.45;;;0.60;;
13240;SDS011;6687;47.790;7.322;2023-07-28T12:22:07;0.75;;;0.75;;
13240;SDS011;6687;47.790;7.322;2023-07-28T12:24:34;0.80;;;0.50;;
13240;SDS011;6687;47.790;7.322;2023-07-28T12:27:00;0.82;;;0.43;;
13240;SDS011;6687;47.790;7.322;2023-07-28T12:29:28;0.80;;;0.60;;
13240;SDS011;6687;47.790;7.322;2023-07-28T12:31:55;0.47;;;0.40;;
13240;SDS011;6687;47.790;7.322;2023-07-28T12:34:22;0.40;;;0.40;;
13240;SDS011;6687;47.790;7.322;2023-07-28T12:36:49;0.85;;;0.43;;
13240;SDS011;6687;47.790;7.322;2023-07-28T12:39:16;0.40;;;0.40;;
13240;SDS011;6687;47.790;7.322;2023-07-28T12:41:42;0.10;;;0.10;;
13240;SDS011;6687;47.790;7.322;2023-07-28T12:44:09;1.08;;;0.55;;
13240;SDS011;6687;47.790;7.322;2023-07-28T12:46:37;0.45;;;0.30;;
13240;SDS011;6687;47.790;7.322;2023-07-28T12:49:05;0.52;;;0.40;;
13240;SDS011;6687;47.790;7.322;2023-07-28T12:51:32;0.38;;;0.38;;
13240;SDS011;6687;47.790;7.322;2023-07-28T12:53:59;0.40;;;0.40;;
13240;SDS011;6687;47.790;7.322;2023-07-28T12:56:26;0.80;;;0.40;;
13240;SDS011;6687;47.790;7.322;2023-07-28T12:58:52;0.55;;;0.50;;
13240;SDS011;6687;47.790;7.322;2023-07-28T13:01:19;0.47;;;0.47;;
13240;SDS011;6687;47.790;7.322;2023-07-28T13:03:47;0.38;;;0.30;;
13240;SDS011;6687;47.790;7.322;2023-07-28T13:06:14;0.75;;;0.38;;
13240;SDS011;6687;47.790;7.322;2023-07-28T13:08:41;0.55;;;0.55;;
13240;SDS011;6687;47.790;7.322;2023-07-28T13:11:07;0.45;;;0.40;;
13240;SDS011;6687;47.790;7.322;2023-07-28T13:13:34;0.60;;;0.40;;
13240;SDS011;6687;47.790;7.322;2023-07-28T13:16:01;0.50;;;0.30;;
13240;SDS011;6687;47.790;7.322;2023-07-28T13:18:27;0.50;;;0.50;;
13240;SDS011;6687;47.790;7.322;2023-07-28T13:20:57;0.73;;;0.40;;
13240;SDS011;6687;47.790;7.322;2023-07-28T13:23:24;0.22;;;0.22;;
13240;SDS011;6687;47.790;7.322;2023-07-28T13:25:51;0.57;;;0.40;;
13240;SDS011;6687;47.790;7.322;2023-07-28T13:28:17;0.50;;;0.50;;
13240;SDS011;6687;47.790;7.322;2023-07-28T13:30:44;1.10;;;0.47;;
13240;SDS011;6687;47.790;7.322;2023-07-28T13:33:11;0.30;;;0.30;;
13240;SDS011;6687;47.790;7.322;2023-07-28T13:35:38;0.28;;;0.28;;
13240;SDS011;6687;47.790;7.322;2023-07-28T13:38:06;0.75;;;0.75;;
13240;SDS011;6687;47.790;7.322;2023-07-28T13:40:32;0.28;;;0.22;;
13240;SDS011;6687;47.790;7.322;2023-07-28T13:42:59;2.17;;;0.30;;
13240;SDS011;6687;47.790;7.322;2023-07-28T13:45:26;0.50;;;0.50;;
13240;SDS011;6687;47.790;7.322;2023-07-28T13:47:53;0.20;;;0.20;;
13240;SDS011;6687;47.790;7.322;2023-07-28T13:50:19;0.65;;;0.28;;
13240;SDS011;6687;47.790;7.322;2023-07-28T13:52:46;0.60;;;0.40;;
13240;SDS011;6687;47.790;7.322;2023-07-28T13:55:14;0.57;;;0.40;;
13240;SDS011;6687;47.790;7.322;2023-07-28T13:57:41;0.25;;;0.25;;
13240;SDS011;6687;47.790;7.322;2023-07-28T14:00:08;0.20;;;0.20;;
13240;SDS011;6687;47.790;7.322;2023-07-28T14:02:36;0.45;;;0.45;;
13240;SDS011;6687;47.790;7.322;2023-07-28T14:05:03;0.35;;;0.30;;
13240;SDS011;6687;47.790;7.322;2023-07-28T14:07:30;0.38;;;0.38;;
13240;SDS011;6687;47.790;7.322;2023-07-28T14:09:58;0.40;;;0.40;;
13240;SDS011;6687;47.790;7.322;2023-07-28T14:12:26;0.40;;;0.40;;
13240;SDS011;6687;47.790;7.322;2023-07-28T14:14:53;0.85;;;0.30;;
13240;SDS011;6687;47.790;7.322;2023-07-28T14:17:20;0.35;;;0.35;;
13240;SDS011;6687;47.790;7.322;2023-07-28T14:19:47;0.40;;;0.40;;
13240;SDS011;6687;47.790;7.322;2023-07-28T14:22:14;0.98;;;0.38;;
13240;SDS011;6687;47.790;7.322;2023-07-28T14:24:40;0.73;;;0.40;;
13240;SDS011;6687;47.790;7.322;2023-07-28T14:27:07;0.50;;;0.35;;
13240;SDS011;6687;47.790;7.322;2023-07-28T14:29:35;0.40;;;0.40;;
13240;SDS011;6687;47.790;7.322;2023-07-28T14:32:02;0.50;;;0.50;;
13240;SDS011;6687;47.790;7.322;2023-07-28T14:34:29;0.40;;;0.40;;
13240;SDS011;6687;47.790;7.322;2023-07-28T14:36:55;0.50;;;0.40;;
13240;SDS011;6687;47.790;7.322;2023-07-28T14:39:22;0.60;;;0.60;;
13240;SDS011;6687;47.790;7.322;2023-07-28T14:41:49;0.93;;;0.50;;
13240;SDS011;6687;47.790;7.322;2023-07-28T14:44:15;0.30;;;0.30;;
13240;SDS011;6687;47.790;7.322;2023-07-28T14:46:44;1.75;;;0.57;;
13240;SDS011;6687;47.790;7.322;2023-07-28T14:49:11;0.40;;;0.40;;
13240;SDS011;6687;47.790;7.322;2023-07-28T14:51:38;0.25;;;0.25;;
13240;SDS011;6687;47.790;7.322;2023-07-28T14:54:04;0.55;;;0.50;;
13240;SDS011;6687;47.790;7.322;2023-07-28T14:56:31;2.20;;;0.52;;
13240;SDS011;6687;47.790;7.322;2023-07-28T14:58:58;0.20;;;0.20;;
13240;SDS011;6687;47.790;7.322;2023-07-28T15:01:27;0.40;;;0.38;;
13240;SDS011;6687;47.790;7.322;2023-07-28T15:03:55;0.57;;;0.57;;
13240;SDS011;6687;47.790;7.322;2023-07-28T15:06:21;0.47;;;0.38;;
13240;SDS011;6687;47.790;7.322;2023-07-28T15:08:49;0.60;;;0.40;;
13240;SDS011;6687;47.790;7.322;2023-07-28T15:11:16;0.50;;;0.50;;
13240;SDS011;6687;47.790;7.322;2023-07-28T15:13:43;0.77;;;0.70;;
13240;SDS011;6687;47.790;7.322;2023-07-28T15:16:09;0.40;;;0.40;;
13240;SDS011;6687;47.790;7.322;2023-07-28T15:18:38;0.63;;;0.63;;
13240;SDS011;6687;47.790;7.322;2023-07-28T15:21:06;0.80;;;0.77;;
13240;SDS011;6687;47.790;7.322;2023-07-28T15:23:33;0.60;;;0.57;;
13240;SDS011;6687;47.790;7.322;2023-07-28T15:26:00;0.63;;;0.40;;
13240;SDS011;6687;47.790;7.322;2023-07-28T15:28:27;0.73;;;0.40;;
13240;SDS011;6687;47.790;7.322;2023-07-28T15:30:53;0.30;;;0.30;;
13240;SDS011;6687;47.790;7.322;2023-07-28T15:33:21;0.40;;;0.40;;
13240;SDS011;6687;47.790;7.322;2023-07-28T15:35:50;0.30;;;0.30;;
13240;SDS011;6687;47.790;7.322;2023-07-28T15:38:18;0.30;;;0.30;;
13240;SDS011;6687;47.790;7.322;2023-07-28T15:40:45;0.90;;;0.40;;
13240;SDS011;6687;47.790;7.322;2023-07-28T15:43:11;0.95;;;0.70;;
13240;SDS011;6687;47.790;7.322;2023-07-28T15:45:38;0.40;;;0.40;;
13240;SDS011;6687;47.790;7.322;2023-07-28T15:48:05;0.30;;;0.30;;
13240;SDS011;6687;47.790;7.322;2023-07-28T15:50:31;1.13;;;0.57;;
13240;SDS011;6687;47.790;7.322;2023-07-28T15:52:58;0.20;;;0.20;;
13240;SDS011;6687;47.790;7.322;2023-07-28T15:55:26;0.22;;;0.22;;
13240;SDS011;6687;47.790;7.322;2023-07-28T15:57:53;0.40;;;0.40;;
13240;SDS011;6687;47.790;7.322;2023-07-28T16:00:20;0.50;;;0.40;;
13240;SDS011;6687;47.790;7.322;2023-07-28T16:02:46;0.30;;;0.28;;
13240;SDS011;6687;47.790;7.322;2023-07-28T16:05:13;0.77;;;0.70;;
13240;SDS011;6687;47.790;7.322;2023-07-28T16:07:40;0.45;;;0.45;;
13240;SDS011;6687;47.790;7.322;2023-07-28T16:10:07;0.25;;;0.25;;
13240;SDS011;6687;47.790;7.322;2023-07-28T16:12:37;0.52;;;0.45;;
13240;SDS011;6687;47.790;7.322;2023-07-28T16:15:04;0.40;;;0.40;;
13240;SDS011;6687;47.790;7.322;2023-07-28T16:17:31;1.55;;;0.50;;
13240;SDS011;6687;47.790;7.322;2023-07-28T16:19:58;0.17;;;0.17;;
13240;SDS011;6687;47.790;7.322;2023-07-28T16:22:24;0.43;;;0.22;;
13240;SDS011;6687;47.790;7.322;2023-07-28T16:24:51;0.38;;;0.38;;
13240;SDS011;6687;47.790;7.322;2023-07-28T16:27:18;0.30;;;0.20;;
13240;SDS011;6687;47.790;7.322;2023-07-28T16:29:46;0.30;;;0.30;;
13240;SDS011;6687;47.790;7.322;2023-07-28T16:32:13;0.90;;;0.40;;
13240;SDS011;6687;47.790;7.322;2023-07-28T16:34:40;0.45;;;0.30;;
13240;SDS011;6687;47.790;7.322;2023-07-28T16:37:07;0.55;;;0.38;;
13240;SDS011;6687;47.790;7.322;2023-07-28T16:39:34;0.30;;;0.30;;
13240;SDS011;6687;47.790;7.322;2023-07-28T16:42:00;0.32;;;0.30;;
13240;SDS011;6687;47.790;7.322;2023-07-28T16:44:28;0.20;;;0.20;;
13240;SDS011;6687;47.790;7.322;2023-07-28T16:46:56;0.20;;;0.20;;
13240;SDS011;6687;47.790;7.322;2023-07-28T16:49:22;0.32;;;0.30;;
13240;SDS011;6687;47.790;7.322;2023-07-28T16:51:49;0.20;;;0.20;;
13240;SDS011;6687;47.790;7.322;2023-07-28T16:54:16;0.30;;;0.30;;
13240;SDS011;6687;47.790;7.322;2023-07-28T16:56:42;0.30;;;0.20;;
13240;SDS011;6687;47.790;7.322;2023-07-28T16:59:11;0.28;;;0.28;;
13240;SDS011;6687;47.790;7.322;2023-07-28T17:01:37;0.40;;;0.40;;
13240;SDS011;6687;47.790;7.322;2023-07-28T17:04:05;0.28;;;0.28;;
13240;SDS011;6687;47.790;7.322;2023-07-28T17:06:32;0.30;;;0.30;;
13240;SDS011;6687;47.790;7.322;2023-07-28T17:08:59;0.63;;;0.22;;
13240;SDS011;6687;47.790;7.322;2023-07-28T17:11:25;0.93;;;0.30;;
13240;SDS011;6687;47.790;7.322;2023-07-28T17:13:52;0.43;;;0.38;;
13240;SDS011;6687;47.790;7.322;2023-07-28T17:16:19;1.38;;;0.43;;
13240;SDS011;6687;47.790;7.322;2023-07-28T17:18:47;0.20;;;0.20;;
13240;SDS011;6687;47.790;7.322;2023-07-28T17:21:15;0.28;;;0.28;;
13240;SDS011;6687;47.790;7.322;2023-07-28T17:23:41;0.73;;;0.30;;
13240;SDS011;6687;47.790;7.322;2023-07-28T17:26:08;0.28;;;0.20;;
13240;SDS011;6687;47.790;7.322;2023-07-28T17:28:35;0.52;;;0.30;;
13240;SDS011;6687;47.790;7.322;2023-07-28T17:31:02;0.52;;;0.35;;
13240;SDS011;6687;47.790;7.322;2023-07-28T17:33:28;0.40;;;0.30;;
13240;SDS011;6687;47.790;7.322;2023-07-28T17:35:55;0.47;;;0.35;;
13240;SDS011;6687;47.790;7.322;2023-07-28T17:38:25;0.30;;;0.30;;
13240;SDS011;6687;47.790;7.322;2023-07-28T17:40:53;0.50;;;0.20;;
13240;SDS011;6687;47.790;7.322;2023-07-28T17:43:20;0.28;;;0.28;;
13240;SDS011;6687;47.790;7.322;2023-07-28T17:45:47;0.20;;;0.20;;
13240;SDS011;6687;47.790;7.322;2023-07-28T17:48:14;0.20;;;0.20;;
13240;SDS011;6687;47.790;7.322;2023-07-28T17:50:40;0.20;;;0.20;;
13240;SDS011;6687;47.790;7.322;2023-07-28T17:53:07;0.43;;;0.35;;
13240;SDS011;6687;47.790;7.322;2023-07-28T17:55:36;0.70;;;0.17;;
13240;SDS011;6687;47.790;7.322;2023-07-28T17:58:02;0.65;;;0.25;;
13240;SDS011;6687;47.790;7.322;2023-07-28T18:00:29;0.20;;;0.10;;
13240;SDS011;6687;47.790;7.322;2023-07-28T18:02:56;0.30;;;0.30;;
13240;SDS011;6687;47.790;7.322;2023-07-28T18:05:22;0.13;;;0.13;;
13240;SDS011;6687;47.790;7.322;2023-07-28T18:07:50;0.30;;;0.30;;
13240;SDS011;6687;47.790;7.322;2023-07-28T18:10:16;0.28;;;0.20;;
13240;SDS011;6687;47.790;7.322;2023-07-28T18:12:45;0.43;;;0.30;;
13240;SDS011;6687;47.790;7.322;2023-07-28T18:15:12;0.20;;;0.20;;
13240;SDS011;6687;47.790;7.322;2023-07-28T18:17:39;0.20;;;0.20;;
13240;SDS011;6687;47.790;7.322;2023-07-28T18:20:06;0.15;;;0.15;;
13240;SDS011;6687;47.790;7.322;2023-07-28T18:22:34;0.40;;;0.30;;
13240;SDS011;6687;47.790;7.322;2023-07-28T18:25:00;0.28;;;0.20;;
13240;SDS011;6687;47.790;7.322;2023-07-28T18:27:27;0.30;;;0.30;;
13240;SDS011;6687;47.790;7.322;2023-07-28T18:29:55;0.20;;;0.20;;
13240;SDS011;6687;47.790;7.322;2023-07-28T18:32:22;0.52;;;0.32;;
13240;SDS011;6687;47.790;7.322;2023-07-28T18:34:49;0.47;;;0.20;;
13240;SDS011;6687;47.790;7.322;2023-07-28T18:37:15;0.57;;;0.40;;
13240;SDS011;6687;47.790;7.322;2023-07-28T18:39:42;0.20;;;0.20;;
13240;SDS011;6687;47.790;7.322;2023-07-28T18:42:09;0.88;;;0.50;;
13240;SDS011;6687;47.790;7.322;2023-07-28T18:44:36;0.30;;;0.30;;
13240;SDS011;6687;47.790;7.322;2023-07-28T18:47:04;0.73;;;0.40;;
13240;SDS011;6687;47.790;7.322;2023-07-28T18:49:31;0.80;;;0.35;;
13240;SDS011;6687;47.790;7.322;2023-07-28T18:51:58;0.38;;;0.30;;
13240;SDS011;6687;47.790;7.322;2023-07-28T18:54:25;0.93;;;0.50;;
13240;SDS011;6687;47.790;7.322;2023-07-28T18:56:51;0.60;;;0.60;;
13240;SDS011;6687;47.790;7.322;2023-07-28T18:59:19;0.40;;;0.40;;
13240;SDS011;6687;47.790;7.322;2023-07-28T19:01:46;0.30;;;0.30;;
13240;SDS011;6687;47.790;7.322;2023-07-28T19:04:14;0.80;;;0.52;;
13240;SDS011;6687;47.790;7.322;2023-07-28T19:06:40;0.38;;;0.38;;
13240;SDS011;6687;47.790;7.322;2023-07-28T19:09:07;0.30;;;0.30;;
13240;SDS011;6687;47.790;7.322;2023-07-28T19:11:34;0.30;;;0.30;;
13240;SDS011;6687;47.790;7.322;2023-07-28T19:14:00;0.30;;;0.30;;
13240;SDS011;6687;47.790;7.322;2023-07-28T19:16:27;0.43;;;0.30;;
13240;SDS011;6687;47.790;7.322;2023-07-28T19:18:55;0.40;;;0.40;;
13240;SDS011;6687;47.790;7.322;2023-07-28T19:21:23;0.65;;;0.50;;
13240;SDS011;6687;47.790;7.322;2023-07-28T19:23:50;0.32;;;0.32;;
13240;SDS011;6687;47.790;7.322;2023-07-28T19:26:17;1.63;;;0.47;;
13240;SDS011;6687;47.790;7.322;2023-07-28T19:28:44;0.40;;;0.40;;
13240;SDS011;6687;47.790;7.322;2023-07-28T19:31:11;0.60;;;0.47;;
13240;SDS011;6687;47.790;7.322;2023-07-28T19:33:38;0.77;;;0.35;;
13240;SDS011;6687;47.790;7.322;2023-07-28T19:36:04;0.30;;;0.30;;
13240;SDS011;6687;47.790;7.322;2023-07-28T19:38:33;0.30;;;0.30;;
13240;SDS011;6687;47.790;7.322;2023-07-28T19:40:59;0.30;;;0.30;;
13240;SDS011;6687;47.790;7.322;2023-07-28T19:43:26;0.63;;;0.28;;
13240;SDS011;6687;47.790;7.322;2023-07-28T19:45:53;0.35;;;0.32;;
13240;SDS011;6687;47.790;7.322;2023-07-28T19:48:20;0.45;;;0.22;;
13240;SDS011;6687;47.790;7.322;2023-07-28T19:50:48;0.95;;;0.47;;
13240;SDS011;6687;47.790;7.322;2023-07-28T19:53:14;0.47;;;0.40;;
13240;SDS011;6687;47.790;7.322;2023-07-28T19:55:43;0.63;;;0.40;;
13240;SDS011;6687;47.790;7.322;2023-07-28T19:58:10;0.50;;;0.50;;
13240;SDS011;6687;47.790;7.322;2023-07-28T20:00:37;0.50;;;0.47;;
13240;SDS011;6687;47.790;7.322;2023-07-28T20:03:04;1.25;;;0.57;;
13240;SDS011;6687;47.790;7.322;2023-07-28T20:05:32;0.80;;;0.70;;
13240;SDS011;6687;47.790;7.322;2023-07-28T20:07:59;0.90;;;0.75;;
13240;SDS011;6687;47.790;7.322;2023-07-28T20:10:26;1.15;;;0.60;;
13240;SDS011;6687;47.790;7.322;2023-07-28T20:12:54;0.40;;;0.40;;
13240;SDS011;6687;47.790;7.322;2023-07-28T20:15:21;0.73;;;0.38;;
13240;SDS011;6687;47.790;7.322;2023-07-28T20:17:47;0.47;;;0.40;;
13240;SDS011;6687;47.790;7.322;2023-07-28T20:20:14;0.50;;;0.50;;
13240;SDS011;6687;47.790;7.322;2023-07-28T20:22:41;1.75;;;0.43;;
13240;SDS011;6687;47.790;7.322;2023-07-28T20:25:10;0.80;;;0.80;;
13240;SDS011;6687;47.790;7.322;2023-07-28T20:27:41;0.38;;;0.38;;